sensor_id;sensor_type;location;lat;lon;timestamp;P1;durP1;ratioP1;P2;durP2;ratioP2
38683;SDS011;24910;53.248;-6.134;2022-07-23T00:01:28;6.85;;;3.25;;
38683;SDS011;24910;53.248;-6.134;2022-07-23T00:03:57;5.97;;;3.13;;
38683;SDS011;24910;53.248;-6.134;2022-07-23T00:06:26;4.60;;;3.13;;
38683;SDS011;24910;53.248;-6.134;2022-07-23T00:08:56;5.30;;;2.70;;
38683;SDS011;24910;53.248;-6.134;2022-07-23T00:11:25;5.40;;;3.00;;
38683;SDS011;24910;53.248;-6.134;2022-07-23T00:13:56;6.97;;;2.97;;
38683;SDS011;24910;53.248;-6.134;2022-07-23T00:16:25;5.53;;;2.80;;
38683;SDS011;24910;53.248;-6.134;2022-07-23T00:18:54;5.43;;;2.75;;
38683;SDS011;24910;53.248;-6.134;2022-07-23T00:21:24;4.13;;;2.58;;
38683;SDS011;24910;53.248;-6.134;2022-07-23T00:23:53;5.38;;;2.65;;
38683;SDS011;24910;53.248;-6.134;2022-07-23T00:26:22;5.97;;;2.88;;
38683;SDS011;24910;53.248;-6.134;2022-07-23T00:28:52;6.78;;;2.92;;
38683;SDS011;24910;53.248;-6.134;2022-07-23T00:31:22;3.70;;;2.95;;
38683;SDS011;24910;53.248;-6.134;2022-07-23T00:33:51;6.97;;;3.20;;
38683;SDS011;24910;53.248;-6.134;2022-07-23T00:36:23;4.43;;;3.03;;
38683;SDS011;24910;53.248;-6.134;2022-07-23T00:38:52;4.10;;;2.90;;
38683;SDS011;24910;53.248;-6.134;2022-07-23T00:41:22;4.28;;;2.75;;
38683;SDS011;24910;53.248;-6.134;2022-07-23T00:43:52;4.18;;;2.80;;
38683;SDS011;24910;53.248;-6.134;2022-07-23T00:46:22;5.63;;;2.85;;
38683;SDS011;24910;53.248;-6.134;2022-07-23T00:51:21;3.50;;;2.60;;
38683;SDS011;24910;53.248;-6.134;2022-07-23T00:53:50;3.88;;;2.60;;
38683;SDS011;24910;53.248;-6.134;2022-07-23T00:56:19;4.63;;;2.60;;
38683;SDS011;24910;53.248;-6.134;2022-07-23T00:58:48;5.07;;;3.13;;
38683;SDS011;24910;53.248;-6.134;2022-07-23T01:01:18;4.03;;;3.00;;
38683;SDS011;24910;53.248;-6.134;2022-07-23T01:03:48;7.80;;;2.92;;
38683;SDS011;24910;53.248;-6.134;2022-07-23T01:06:18;5.70;;;2.97;;
38683;SDS011;24910;53.248;-6.134;2022-07-23T01:08:47;5.63;;;2.72;;
38683;SDS011;24910;53.248;-6.134;2022-07-23T01:11:17;4.63;;;2.83;;
38683;SDS011;24910;53.248;-6.134;2022-07-23T01:13:47;5.22;;;2.70;;
38683;SDS011;24910;53.248;-6.134;2022-07-23T01:16:17;4.18;;;2.60;;
38683;SDS011;24910;53.248;-6.134;2022-07-23T01:18:46;5.78;;;2.90;;
38683;SDS011;24910;53.248;-6.134;2022-07-23T01:21:17;3.83;;;2.85;;
38683;SDS011;24910;53.248;-6.134;2022-07-23T01:23:48;3.83;;;2.63;;
38683;SDS011;24910;53.248;-6.134;2022-07-23T01:26:18;3.55;;;2.90;;
38683;SDS011;24910;53.248;-6.134;2022-07-23T01:28:47;4.35;;;2.78;;
38683;SDS011;24910;53.248;-6.134;2022-07-23T01:31:16;4.20;;;2.60;;
38683;SDS011;24910;53.248;-6.134;2022-07-23T01:33:46;5.10;;;2.70;;
38683;SDS011;24910;53.248;-6.134;2022-07-23T01:36:15;3.05;;;2.40;;
38683;SDS011;24910;53.248;-6.134;2022-07-23T01:38:45;3.45;;;2.78;;
38683;SDS011;24910;53.248;-6.134;2022-07-23T01:41:15;4.43;;;2.55;;
38683;SDS011;24910;53.248;-6.134;2022-07-23T01:43:45;3.45;;;2.38;;
38683;SDS011;24910;53.248;-6.134;2022-07-23T01:46:14;3.47;;;2.40;;
38683;SDS011;24910;53.248;-6.134;2022-07-23T01:48:47;4.20;;;2.78;;
38683;SDS011;24910;53.248;-6.134;2022-07-23T01:51:35;5.25;;;2.70;;
38683;SDS011;24910;53.248;-6.134;2022-07-23T01:54:09;2.50;;;2.30;;
38683;SDS011;24910;53.248;-6.134;2022-07-23T01:56:39;3.90;;;2.50;;
38683;SDS011;24910;53.248;-6.134;2022-07-23T01:59:08;5.10;;;2.67;;
38683;SDS011;24910;53.248;-6.134;2022-07-23T02:01:37;3.78;;;2.50;;
38683;SDS011;24910;53.248;-6.134;2022-07-23T02:04:07;4.50;;;2.38;;
38683;SDS011;24910;53.248;-6.134;2022-07-23T02:06:36;4.35;;;2.60;;
38683;SDS011;24910;53.248;-6.134;2022-07-23T02:09:05;4.57;;;2.67;;
38683;SDS011;24910;53.248;-6.134;2022-07-23T02:11:34;2.83;;;2.53;;
38683;SDS011;24910;53.248;-6.134;2022-07-23T02:14:05;3.83;;;2.67;;
38683;SDS011;24910;53.248;-6.134;2022-07-23T02:16:34;3.00;;;2.53;;
38683;SDS011;24910;53.248;-6.134;2022-07-23T02:19:03;5.00;;;2.40;;
38683;SDS011;24910;53.248;-6.134;2022-07-23T02:21:33;3.33;;;2.60;;
38683;SDS011;24910;53.248;-6.134;2022-07-23T02:24:03;3.72;;;2.70;;
38683;SDS011;24910;53.248;-6.134;2022-07-23T02:26:33;6.85;;;3.33;;
38683;SDS011;24910;53.248;-6.134;2022-07-23T02:29:06;3.83;;;3.03;;
38683;SDS011;24910;53.248;-6.134;2022-07-23T02:31:35;7.00;;;3.50;;
38683;SDS011;24910;53.248;-6.134;2022-07-23T02:34:06;6.95;;;3.35;;
38683;SDS011;24910;53.248;-6.134;2022-07-23T02:36:39;6.65;;;3.75;;
38683;SDS011;24910;53.248;-6.134;2022-07-23T02:39:09;5.93;;;3.63;;
38683;SDS011;24910;53.248;-6.134;2022-07-23T02:41:38;7.30;;;4.00;;
38683;SDS011;24910;53.248;-6.134;2022-07-23T02:44:09;5.00;;;3.92;;
38683;SDS011;24910;53.248;-6.134;2022-07-23T02:46:39;6.47;;;4.18;;
38683;SDS011;24910;53.248;-6.134;2022-07-23T02:49:09;7.05;;;3.90;;
38683;SDS011;24910;53.248;-6.134;2022-07-23T02:51:38;9.02;;;4.15;;
38683;SDS011;24910;53.248;-6.134;2022-07-23T02:54:08;8.65;;;4.20;;
38683;SDS011;24910;53.248;-6.134;2022-07-23T02:56:37;7.10;;;4.47;;
38683;SDS011;24910;53.248;-6.134;2022-07-23T02:59:06;8.95;;;4.35;;
38683;SDS011;24910;53.248;-6.134;2022-07-23T03:01:36;7.65;;;4.57;;
38683;SDS011;24910;53.248;-6.134;2022-07-23T03:04:07;9.52;;;4.28;;
38683;SDS011;24910;53.248;-6.134;2022-07-23T03:06:36;6.45;;;4.25;;
38683;SDS011;24910;53.248;-6.134;2022-07-23T03:09:05;6.50;;;4.75;;
38683;SDS011;24910;53.248;-6.134;2022-07-23T03:11:34;7.47;;;4.50;;
38683;SDS011;24910;53.248;-6.134;2022-07-23T03:14:03;8.75;;;4.45;;
38683;SDS011;24910;53.248;-6.134;2022-07-23T03:16:34;7.25;;;4.15;;
38683;SDS011;24910;53.248;-6.134;2022-07-23T03:19:05;6.47;;;4.40;;
38683;SDS011;24910;53.248;-6.134;2022-07-23T03:21:34;5.47;;;4.50;;
38683;SDS011;24910;53.248;-6.134;2022-07-23T03:24:07;5.95;;;4.30;;
38683;SDS011;24910;53.248;-6.134;2022-07-23T03:26:37;6.65;;;4.45;;
38683;SDS011;24910;53.248;-6.134;2022-07-23T03:29:07;9.02;;;4.72;;
38683;SDS011;24910;53.248;-6.134;2022-07-23T03:31:38;8.27;;;4.72;;
38683;SDS011;24910;53.248;-6.134;2022-07-23T03:34:07;6.78;;;4.32;;
38683;SDS011;24910;53.248;-6.134;2022-07-23T03:36:37;8.43;;;5.07;;
38683;SDS011;24910;53.248;-6.134;2022-07-23T03:39:06;10.80;;;5.28;;
38683;SDS011;24910;53.248;-6.134;2022-07-23T03:41:40;8.50;;;5.28;;
38683;SDS011;24910;53.248;-6.134;2022-07-23T03:44:10;9.88;;;5.85;;
38683;SDS011;24910;53.248;-6.134;2022-07-23T03:49:12;9.93;;;5.78;;
38683;SDS011;24910;53.248;-6.134;2022-07-23T03:51:41;11.57;;;5.97;;
38683;SDS011;24910;53.248;-6.134;2022-07-23T03:54:10;7.88;;;5.93;;
38683;SDS011;24910;53.248;-6.134;2022-07-23T03:56:39;9.13;;;5.85;;
38683;SDS011;24910;53.248;-6.134;2022-07-23T03:59:09;10.53;;;6.67;;
38683;SDS011;24910;53.248;-6.134;2022-07-23T04:01:39;11.15;;;6.38;;
38683;SDS011;24910;53.248;-6.134;2022-07-23T04:04:09;9.32;;;5.97;;
38683;SDS011;24910;53.248;-6.134;2022-07-23T04:06:40;9.68;;;5.82;;
38683;SDS011;24910;53.248;-6.134;2022-07-23T04:09:09;10.93;;;6.28;;
38683;SDS011;24910;53.248;-6.134;2022-07-23T04:11:38;8.82;;;5.65;;
38683;SDS011;24910;53.248;-6.134;2022-07-23T04:14:08;10.38;;;5.07;;
38683;SDS011;24910;53.248;-6.134;2022-07-23T04:16:37;9.20;;;5.35;;
38683;SDS011;24910;53.248;-6.134;2022-07-23T04:19:06;11.70;;;5.88;;
38683;SDS011;24910;53.248;-6.134;2022-07-23T04:21:48;8.80;;;5.60;;
38683;SDS011;24910;53.248;-6.134;2022-07-23T04:24:17;10.30;;;6.10;;
38683;SDS011;24910;53.248;-6.134;2022-07-23T04:26:47;9.70;;;5.53;;
38683;SDS011;24910;53.248;-6.134;2022-07-23T04:29:16;10.30;;;5.57;;
38683;SDS011;24910;53.248;-6.134;2022-07-23T04:31:45;9.15;;;5.60;;
38683;SDS011;24910;53.248;-6.134;2022-07-23T04:34:14;8.27;;;5.38;;
38683;SDS011;24910;53.248;-6.134;2022-07-23T04:36:44;8.15;;;5.20;;
38683;SDS011;24910;53.248;-6.134;2022-07-23T04:39:15;9.95;;;5.32;;
38683;SDS011;24910;53.248;-6.134;2022-07-23T04:41:44;7.00;;;5.13;;
38683;SDS011;24910;53.248;-6.134;2022-07-23T04:44:14;7.43;;;5.15;;
38683;SDS011;24910;53.248;-6.134;2022-07-23T04:46:43;8.70;;;5.18;;
38683;SDS011;24910;53.248;-6.134;2022-07-23T04:49:13;9.20;;;5.15;;
38683;SDS011;24910;53.248;-6.134;2022-07-23T04:54:16;9.82;;;5.07;;
38683;SDS011;24910;53.248;-6.134;2022-07-23T04:56:45;8.47;;;5.30;;
38683;SDS011;24910;53.248;-6.134;2022-07-23T04:59:14;11.15;;;5.53;;
38683;SDS011;24910;53.248;-6.134;2022-07-23T05:01:45;8.63;;;5.40;;
38683;SDS011;24910;53.248;-6.134;2022-07-23T05:04:14;9.27;;;5.93;;
38683;SDS011;24910;53.248;-6.134;2022-07-23T05:06:44;8.52;;;5.70;;
38683;SDS011;24910;53.248;-6.134;2022-07-23T05:09:13;11.65;;;5.47;;
38683;SDS011;24910;53.248;-6.134;2022-07-23T05:11:44;12.20;;;5.40;;
38683;SDS011;24910;53.248;-6.134;2022-07-23T05:14:13;8.25;;;5.30;;
38683;SDS011;24910;53.248;-6.134;2022-07-23T05:16:44;10.35;;;5.95;;
38683;SDS011;24910;53.248;-6.134;2022-07-23T05:19:18;11.40;;;5.88;;
38683;SDS011;24910;53.248;-6.134;2022-07-23T05:21:51;9.40;;;5.68;;
38683;SDS011;24910;53.248;-6.134;2022-07-23T05:24:21;9.07;;;5.68;;
38683;SDS011;24910;53.248;-6.134;2022-07-23T05:26:52;7.95;;;5.50;;
38683;SDS011;24910;53.248;-6.134;2022-07-23T05:29:25;10.25;;;5.80;;
38683;SDS011;24910;53.248;-6.134;2022-07-23T05:31:54;9.27;;;5.70;;
38683;SDS011;24910;53.248;-6.134;2022-07-23T05:34:24;11.45;;;5.75;;
38683;SDS011;24910;53.248;-6.134;2022-07-23T05:36:53;9.65;;;5.70;;
38683;SDS011;24910;53.248;-6.134;2022-07-23T05:39:22;13.50;;;6.30;;
38683;SDS011;24910;53.248;-6.134;2022-07-23T05:41:52;11.38;;;5.72;;
38683;SDS011;24910;53.248;-6.134;2022-07-23T05:46:51;9.27;;;5.55;;
38683;SDS011;24910;53.248;-6.134;2022-07-23T05:49:23;13.90;;;5.85;;
38683;SDS011;24910;53.248;-6.134;2022-07-23T05:52:23;14.82;;;5.30;;
38683;SDS011;24910;53.248;-6.134;2022-07-23T05:55:16;10.85;;;6.25;;
38683;SDS011;24910;53.248;-6.134;2022-07-23T05:57:46;14.10;;;6.03;;
38683;SDS011;24910;53.248;-6.134;2022-07-23T06:00:16;12.23;;;6.40;;
38683;SDS011;24910;53.248;-6.134;2022-07-23T06:02:47;11.20;;;6.57;;
38683;SDS011;24910;53.248;-6.134;2022-07-23T06:05:22;11.07;;;5.38;;
38683;SDS011;24910;53.248;-6.134;2022-07-23T06:07:55;12.98;;;5.78;;
38683;SDS011;24910;53.248;-6.134;2022-07-23T06:10:25;17.35;;;6.20;;
38683;SDS011;24910;53.248;-6.134;2022-07-23T06:12:56;13.50;;;6.03;;
38683;SDS011;24910;53.248;-6.134;2022-07-23T06:15:29;11.30;;;6.00;;
38683;SDS011;24910;53.248;-6.134;2022-07-23T06:17:58;12.32;;;6.13;;
38683;SDS011;24910;53.248;-6.134;2022-07-23T06:20:27;11.38;;;5.60;;
38683;SDS011;24910;53.248;-6.134;2022-07-23T06:22:59;12.70;;;6.00;;
38683;SDS011;24910;53.248;-6.134;2022-07-23T06:25:28;11.80;;;6.15;;
38683;SDS011;24910;53.248;-6.134;2022-07-23T06:27:59;9.90;;;6.20;;
38683;SDS011;24910;53.248;-6.134;2022-07-23T06:30:28;10.63;;;5.87;;
38683;SDS011;24910;53.248;-6.134;2022-07-23T06:32:57;7.60;;;5.32;;
38683;SDS011;24910;53.248;-6.134;2022-07-23T06:35:26;9.02;;;5.95;;
38683;SDS011;24910;53.248;-6.134;2022-07-23T06:37:55;11.38;;;6.28;;
38683;SDS011;24910;53.248;-6.134;2022-07-23T06:40:24;12.35;;;6.35;;
38683;SDS011;24910;53.248;-6.134;2022-07-23T06:42:53;11.82;;;6.47;;
38683;SDS011;24910;53.248;-6.134;2022-07-23T06:45:24;8.60;;;6.13;;
38683;SDS011;24910;53.248;-6.134;2022-07-23T06:47:53;9.02;;;6.13;;
38683;SDS011;24910;53.248;-6.134;2022-07-23T06:50:22;14.02;;;6.40;;
38683;SDS011;24910;53.248;-6.134;2022-07-23T06:52:52;9.77;;;5.85;;
38683;SDS011;24910;53.248;-6.134;2022-07-23T06:55:21;10.30;;;6.70;;
38683;SDS011;24910;53.248;-6.134;2022-07-23T06:57:50;10.02;;;6.32;;
38683;SDS011;24910;53.248;-6.134;2022-07-23T07:00:19;8.02;;;5.72;;
38683;SDS011;24910;53.248;-6.134;2022-07-23T07:02:50;12.95;;;6.53;;
38683;SDS011;24910;53.248;-6.134;2022-07-23T07:05:21;9.55;;;6.35;;
38683;SDS011;24910;53.248;-6.134;2022-07-23T07:07:52;13.63;;;6.15;;
38683;SDS011;24910;53.248;-6.134;2022-07-23T07:10:22;13.48;;;6.78;;
38683;SDS011;24910;53.248;-6.134;2022-07-23T07:12:51;10.73;;;6.90;;
38683;SDS011;24910;53.248;-6.134;2022-07-23T07:15:20;9.90;;;6.72;;
38683;SDS011;24910;53.248;-6.134;2022-07-23T07:17:51;9.02;;;7.03;;
38683;SDS011;24910;53.248;-6.134;2022-07-23T07:20:20;16.67;;;7.90;;
38683;SDS011;24910;53.248;-6.134;2022-07-23T07:22:49;12.27;;;7.60;;
38683;SDS011;24910;53.248;-6.134;2022-07-23T07:25:18;10.85;;;7.45;;
38683;SDS011;24910;53.248;-6.134;2022-07-23T07:27:47;13.50;;;7.60;;
38683;SDS011;24910;53.248;-6.134;2022-07-23T07:30:16;11.50;;;6.68;;
38683;SDS011;24910;53.248;-6.134;2022-07-23T07:32:45;10.90;;;7.20;;
38683;SDS011;24910;53.248;-6.134;2022-07-23T07:35:25;9.75;;;6.80;;
38683;SDS011;24910;53.248;-6.134;2022-07-23T07:37:54;9.57;;;6.73;;
38683;SDS011;24910;53.248;-6.134;2022-07-23T07:40:23;9.93;;;7.00;;
38683;SDS011;24910;53.248;-6.134;2022-07-23T07:42:59;9.60;;;6.05;;
38683;SDS011;24910;53.248;-6.134;2022-07-23T07:45:30;10.50;;;6.47;;
38683;SDS011;24910;53.248;-6.134;2022-07-23T07:47:59;9.15;;;6.28;;
38683;SDS011;24910;53.248;-6.134;2022-07-23T07:50:30;11.50;;;6.82;;
38683;SDS011;24910;53.248;-6.134;2022-07-23T07:53:00;8.85;;;5.85;;
38683;SDS011;24910;53.248;-6.134;2022-07-23T07:55:29;8.43;;;6.25;;
38683;SDS011;24910;53.248;-6.134;2022-07-23T07:57:58;7.00;;;5.90;;
38683;SDS011;24910;53.248;-6.134;2022-07-23T08:00:28;8.88;;;5.90;;
38683;SDS011;24910;53.248;-6.134;2022-07-23T08:02:59;11.13;;;6.27;;
38683;SDS011;24910;53.248;-6.134;2022-07-23T08:05:31;11.95;;;6.20;;
38683;SDS011;24910;53.248;-6.134;2022-07-23T08:08:00;9.25;;;6.20;;
38683;SDS011;24910;53.248;-6.134;2022-07-23T08:10:29;9.00;;;6.30;;
38683;SDS011;24910;53.248;-6.134;2022-07-23T08:12:59;8.25;;;5.50;;
38683;SDS011;24910;53.248;-6.134;2022-07-23T08:15:29;8.95;;;5.68;;
38683;SDS011;24910;53.248;-6.134;2022-07-23T08:17:58;7.97;;;6.07;;
38683;SDS011;24910;53.248;-6.134;2022-07-23T08:20:28;10.27;;;6.10;;
38683;SDS011;24910;53.248;-6.134;2022-07-23T08:22:59;7.25;;;5.47;;
38683;SDS011;24910;53.248;-6.134;2022-07-23T08:25:31;9.07;;;5.43;;
38683;SDS011;24910;53.248;-6.134;2022-07-23T08:28:03;12.10;;;5.97;;
38683;SDS011;24910;53.248;-6.134;2022-07-23T08:30:33;8.75;;;5.68;;
38683;SDS011;24910;53.248;-6.134;2022-07-23T08:33:05;9.32;;;5.80;;
38683;SDS011;24910;53.248;-6.134;2022-07-23T08:35:36;8.10;;;5.47;;
38683;SDS011;24910;53.248;-6.134;2022-07-23T08:38:08;7.45;;;5.05;;
38683;SDS011;24910;53.248;-6.134;2022-07-23T08:40:41;7.60;;;4.88;;
38683;SDS011;24910;53.248;-6.134;2022-07-23T08:45:44;10.65;;;5.40;;
38683;SDS011;24910;53.248;-6.134;2022-07-23T08:48:16;10.07;;;5.35;;
38683;SDS011;24910;53.248;-6.134;2022-07-23T08:50:48;8.75;;;4.75;;
38683;SDS011;24910;53.248;-6.134;2022-07-23T08:53:20;6.55;;;4.68;;
38683;SDS011;24910;53.248;-6.134;2022-07-23T08:55:52;6.97;;;4.80;;
38683;SDS011;24910;53.248;-6.134;2022-07-23T08:58:24;8.10;;;4.68;;
38683;SDS011;24910;53.248;-6.134;2022-07-23T09:00:55;7.72;;;4.63;;
38683;SDS011;24910;53.248;-6.134;2022-07-23T09:03:26;7.63;;;4.40;;
38683;SDS011;24910;53.248;-6.134;2022-07-23T09:05:57;7.97;;;3.93;;
38683;SDS011;24910;53.248;-6.134;2022-07-23T09:08:35;5.90;;;4.07;;
38683;SDS011;24910;53.248;-6.134;2022-07-23T09:11:06;6.30;;;3.58;;
38683;SDS011;24910;53.248;-6.134;2022-07-23T09:13:37;7.03;;;3.10;;
38683;SDS011;24910;53.248;-6.134;2022-07-23T09:16:10;7.85;;;3.20;;
38683;SDS011;24910;53.248;-6.134;2022-07-23T09:18:42;5.35;;;3.00;;
38683;SDS011;24910;53.248;-6.134;2022-07-23T09:21:14;3.92;;;2.58;;
38683;SDS011;24910;53.248;-6.134;2022-07-23T09:23:49;4.82;;;2.35;;
38683;SDS011;24910;53.248;-6.134;2022-07-23T09:29:12;3.65;;;2.35;;
38683;SDS011;24910;53.248;-6.134;2022-07-23T09:31:51;4.25;;;2.25;;
38683;SDS011;24910;53.248;-6.134;2022-07-23T09:34:22;3.95;;;2.17;;
38683;SDS011;24910;53.248;-6.134;2022-07-23T09:36:53;7.80;;;2.00;;
38683;SDS011;24910;53.248;-6.134;2022-07-23T09:39:29;6.60;;;2.45;;
38683;SDS011;24910;53.248;-6.134;2022-07-23T09:42:14;4.10;;;2.25;;
38683;SDS011;24910;53.248;-6.134;2022-07-23T09:44:45;4.38;;;2.40;;
38683;SDS011;24910;53.248;-6.134;2022-07-23T09:49:57;3.78;;;1.98;;
38683;SDS011;24910;53.248;-6.134;2022-07-23T09:52:28;5.53;;;2.05;;
38683;SDS011;24910;53.248;-6.134;2022-07-23T09:55:03;3.92;;;1.92;;
38683;SDS011;24910;53.248;-6.134;2022-07-23T09:57:34;6.68;;;2.35;;
38683;SDS011;24910;53.248;-6.134;2022-07-23T10:00:04;5.40;;;2.53;;
38683;SDS011;24910;53.248;-6.134;2022-07-23T10:02:37;3.03;;;2.13;;
38683;SDS011;24910;53.248;-6.134;2022-07-23T10:05:44;4.80;;;2.42;;
38683;SDS011;24910;53.248;-6.134;2022-07-23T10:08:21;4.20;;;2.10;;
38683;SDS011;24910;53.248;-6.134;2022-07-23T10:11:15;4.60;;;2.38;;
38683;SDS011;24910;53.248;-6.134;2022-07-23T10:14:03;7.10;;;2.38;;
38683;SDS011;24910;53.248;-6.134;2022-07-23T10:16:45;4.40;;;2.30;;
38683;SDS011;24910;53.248;-6.134;2022-07-23T10:19:15;5.40;;;2.03;;
38683;SDS011;24910;53.248;-6.134;2022-07-23T10:21:46;4.28;;;2.00;;
38683;SDS011;24910;53.248;-6.134;2022-07-23T10:24:22;3.33;;;2.00;;
38683;SDS011;24910;53.248;-6.134;2022-07-23T10:27:02;2.85;;;1.90;;
38683;SDS011;24910;53.248;-6.134;2022-07-23T10:29:42;5.10;;;2.33;;
38683;SDS011;24910;53.248;-6.134;2022-07-23T10:32:17;5.15;;;2.28;;
38683;SDS011;24910;53.248;-6.134;2022-07-23T10:34:58;5.80;;;2.22;;
38683;SDS011;24910;53.248;-6.134;2022-07-23T10:37:38;4.43;;;2.07;;
38683;SDS011;24910;53.248;-6.134;2022-07-23T10:40:11;4.78;;;2.20;;
38683;SDS011;24910;53.248;-6.134;2022-07-23T10:42:42;3.90;;;2.10;;
38683;SDS011;24910;53.248;-6.134;2022-07-23T10:45:23;3.88;;;2.58;;
38683;SDS011;24910;53.248;-6.134;2022-07-23T10:47:54;5.75;;;2.40;;
38683;SDS011;24910;53.248;-6.134;2022-07-23T10:50:25;3.63;;;2.30;;
38683;SDS011;24910;53.248;-6.134;2022-07-23T10:53:08;4.13;;;1.83;;
38683;SDS011;24910;53.248;-6.134;2022-07-23T10:55:44;4.03;;;1.80;;
38683;SDS011;24910;53.248;-6.134;2022-07-23T10:58:20;3.00;;;1.80;;
38683;SDS011;24910;53.248;-6.134;2022-07-23T11:04:02;2.97;;;1.45;;
38683;SDS011;24910;53.248;-6.134;2022-07-23T11:09:40;2.65;;;1.60;;
38683;SDS011;24910;53.248;-6.134;2022-07-23T11:15:05;2.63;;;1.10;;
38683;SDS011;24910;53.248;-6.134;2022-07-23T11:17:37;1.17;;;0.90;;
38683;SDS011;24910;53.248;-6.134;2022-07-23T11:20:16;2.55;;;1.10;;
38683;SDS011;24910;53.248;-6.134;2022-07-23T11:22:47;1.83;;;0.90;;
38683;SDS011;24910;53.248;-6.134;2022-07-23T11:28:13;2.08;;;1.25;;
38683;SDS011;24910;53.248;-6.134;2022-07-23T11:33:21;1.00;;;0.90;;
38683;SDS011;24910;53.248;-6.134;2022-07-23T11:35:59;2.33;;;1.17;;
38683;SDS011;24910;53.248;-6.134;2022-07-23T11:38:31;3.13;;;1.30;;
38683;SDS011;24910;53.248;-6.134;2022-07-23T11:41:00;2.25;;;1.13;;
38683;SDS011;24910;53.248;-6.134;2022-07-23T11:43:30;2.25;;;1.30;;
38683;SDS011;24910;53.248;-6.134;2022-07-23T11:46:00;1.85;;;1.10;;
38683;SDS011;24910;53.248;-6.134;2022-07-23T11:48:29;2.73;;;1.27;;
38683;SDS011;24910;53.248;-6.134;2022-07-23T11:51:06;2.22;;;1.17;;
38683;SDS011;24910;53.248;-6.134;2022-07-23T11:53:35;2.35;;;1.10;;
38683;SDS011;24910;53.248;-6.134;2022-07-23T11:56:05;2.15;;;1.10;;
38683;SDS011;24910;53.248;-6.134;2022-07-23T11:58:36;1.10;;;1.00;;
38683;SDS011;24910;53.248;-6.134;2022-07-23T12:01:07;2.10;;;0.98;;
38683;SDS011;24910;53.248;-6.134;2022-07-23T12:03:48;5.93;;;1.83;;
38683;SDS011;24910;53.248;-6.134;2022-07-23T12:06:18;11.68;;;3.28;;
38683;SDS011;24910;53.248;-6.134;2022-07-23T12:08:47;5.38;;;1.90;;
38683;SDS011;24910;53.248;-6.134;2022-07-23T12:11:18;4.60;;;1.80;;
38683;SDS011;24910;53.248;-6.134;2022-07-23T12:13:55;5.38;;;1.80;;
38683;SDS011;24910;53.248;-6.134;2022-07-23T12:16:26;2.60;;;0.98;;
38683;SDS011;24910;53.248;-6.134;2022-07-23T12:18:56;1.20;;;0.82;;
38683;SDS011;24910;53.248;-6.134;2022-07-23T12:21:25;1.35;;;0.77;;
38683;SDS011;24910;53.248;-6.134;2022-07-23T12:24:05;0.98;;;0.90;;
38683;SDS011;24910;53.248;-6.134;2022-07-23T12:26:34;1.27;;;0.70;;
38683;SDS011;24910;53.248;-6.134;2022-07-23T12:29:04;1.45;;;0.80;;
38683;SDS011;24910;53.248;-6.134;2022-07-23T12:31:34;0.80;;;0.80;;
38683;SDS011;24910;53.248;-6.134;2022-07-23T12:34:13;1.70;;;1.20;;
38683;SDS011;24910;53.248;-6.134;2022-07-23T12:36:42;1.13;;;0.90;;
38683;SDS011;24910;53.248;-6.134;2022-07-23T12:39:12;1.00;;;0.73;;
38683;SDS011;24910;53.248;-6.134;2022-07-23T12:41:58;1.02;;;0.90;;
38683;SDS011;24910;53.248;-6.134;2022-07-23T12:44:28;0.70;;;0.60;;
38683;SDS011;24910;53.248;-6.134;2022-07-23T12:47:05;1.00;;;0.75;;
38683;SDS011;24910;53.248;-6.134;2022-07-23T12:49:35;0.70;;;0.70;;
38683;SDS011;24910;53.248;-6.134;2022-07-23T12:52:14;0.80;;;0.80;;
38683;SDS011;24910;53.248;-6.134;2022-07-23T12:54:46;1.90;;;0.90;;
38683;SDS011;24910;53.248;-6.134;2022-07-23T12:57:15;0.98;;;0.77;;
38683;SDS011;24910;53.248;-6.134;2022-07-23T12:59:45;0.70;;;0.60;;
38683;SDS011;24910;53.248;-6.134;2022-07-23T13:02:16;0.75;;;0.75;;
38683;SDS011;24910;53.248;-6.134;2022-07-23T13:04:47;0.60;;;0.60;;
38683;SDS011;24910;53.248;-6.134;2022-07-23T13:07:16;0.57;;;0.55;;
38683;SDS011;24910;53.248;-6.134;2022-07-23T13:09:47;0.70;;;0.70;;
38683;SDS011;24910;53.248;-6.134;2022-07-23T13:12:20;0.95;;;0.60;;
38683;SDS011;24910;53.248;-6.134;2022-07-23T13:14:49;0.55;;;0.55;;
38683;SDS011;24910;53.248;-6.134;2022-07-23T13:17:19;0.70;;;0.70;;
38683;SDS011;24910;53.248;-6.134;2022-07-23T13:19:48;0.90;;;0.87;;
38683;SDS011;24910;53.248;-6.134;2022-07-23T13:22:17;0.93;;;0.60;;
38683;SDS011;24910;53.248;-6.134;2022-07-23T13:24:48;0.55;;;0.55;;
38683;SDS011;24910;53.248;-6.134;2022-07-23T13:27:17;0.50;;;0.50;;
38683;SDS011;24910;53.248;-6.134;2022-07-23T13:29:46;0.63;;;0.63;;
38683;SDS011;24910;53.248;-6.134;2022-07-23T13:32:16;0.68;;;0.50;;
38683;SDS011;24910;53.248;-6.134;2022-07-23T13:34:47;0.50;;;0.50;;
38683;SDS011;24910;53.248;-6.134;2022-07-23T13:37:17;1.30;;;0.50;;
38683;SDS011;24910;53.248;-6.134;2022-07-23T13:39:47;0.70;;;0.55;;
38683;SDS011;24910;53.248;-6.134;2022-07-23T13:42:17;1.38;;;0.60;;
38683;SDS011;24910;53.248;-6.134;2022-07-23T13:44:48;0.52;;;0.52;;
38683;SDS011;24910;53.248;-6.134;2022-07-23T13:47:17;0.75;;;0.70;;
38683;SDS011;24910;53.248;-6.134;2022-07-23T13:49:48;0.82;;;0.68;;
38683;SDS011;24910;53.248;-6.134;2022-07-23T13:52:17;2.45;;;0.70;;
38683;SDS011;24910;53.248;-6.134;2022-07-23T13:54:46;0.60;;;0.60;;
38683;SDS011;24910;53.248;-6.134;2022-07-23T13:57:15;0.65;;;0.65;;
38683;SDS011;24910;53.248;-6.134;2022-07-23T13:59:45;1.73;;;0.70;;
38683;SDS011;24910;53.248;-6.134;2022-07-23T14:02:14;1.15;;;0.70;;
38683;SDS011;24910;53.248;-6.134;2022-07-23T14:04:52;0.85;;;0.70;;
38683;SDS011;24910;53.248;-6.134;2022-07-23T14:07:22;1.05;;;0.60;;
38683;SDS011;24910;53.248;-6.134;2022-07-23T14:09:51;0.70;;;0.70;;
38683;SDS011;24910;53.248;-6.134;2022-07-23T14:12:21;1.45;;;0.73;;
38683;SDS011;24910;53.248;-6.134;2022-07-23T14:14:50;2.58;;;1.05;;
38683;SDS011;24910;53.248;-6.134;2022-07-23T14:17:19;1.42;;;0.90;;
38683;SDS011;24910;53.248;-6.134;2022-07-23T14:19:50;2.15;;;0.90;;
38683;SDS011;24910;53.248;-6.134;2022-07-23T14:22:21;1.40;;;1.00;;
38683;SDS011;24910;53.248;-6.134;2022-07-23T14:24:50;2.97;;;0.98;;
38683;SDS011;24910;53.248;-6.134;2022-07-23T14:27:20;2.75;;;1.00;;
38683;SDS011;24910;53.248;-6.134;2022-07-23T14:29:49;2.08;;;0.73;;
38683;SDS011;24910;53.248;-6.134;2022-07-23T14:32:18;0.80;;;0.80;;
38683;SDS011;24910;53.248;-6.134;2022-07-23T14:34:48;1.42;;;0.80;;
38683;SDS011;24910;53.248;-6.134;2022-07-23T14:37:19;1.25;;;1.00;;
38683;SDS011;24910;53.248;-6.134;2022-07-23T14:39:48;1.90;;;1.00;;
38683;SDS011;24910;53.248;-6.134;2022-07-23T14:42:17;1.10;;;0.80;;
38683;SDS011;24910;53.248;-6.134;2022-07-23T14:44:47;0.85;;;0.60;;
38683;SDS011;24910;53.248;-6.134;2022-07-23T14:47:16;1.48;;;0.60;;
38683;SDS011;24910;53.248;-6.134;2022-07-23T14:49:48;1.35;;;0.60;;
38683;SDS011;24910;53.248;-6.134;2022-07-23T14:52:18;0.50;;;0.50;;
38683;SDS011;24910;53.248;-6.134;2022-07-23T14:54:47;0.93;;;0.70;;
38683;SDS011;24910;53.248;-6.134;2022-07-23T14:57:17;1.10;;;0.60;;
38683;SDS011;24910;53.248;-6.134;2022-07-23T14:59:53;0.40;;;0.40;;
38683;SDS011;24910;53.248;-6.134;2022-07-23T15:02:22;1.63;;;0.77;;
38683;SDS011;24910;53.248;-6.134;2022-07-23T15:04:52;0.68;;;0.68;;
38683;SDS011;24910;53.248;-6.134;2022-07-23T15:07:23;0.50;;;0.50;;
38683;SDS011;24910;53.248;-6.134;2022-07-23T15:09:53;1.98;;;0.68;;
38683;SDS011;24910;53.248;-6.134;2022-07-23T15:12:22;1.80;;;0.70;;
38683;SDS011;24910;53.248;-6.134;2022-07-23T15:14:52;0.75;;;0.60;;
38683;SDS011;24910;53.248;-6.134;2022-07-23T15:17:22;0.60;;;0.60;;
38683;SDS011;24910;53.248;-6.134;2022-07-23T15:19:52;0.70;;;0.70;;
38683;SDS011;24910;53.248;-6.134;2022-07-23T15:22:22;1.90;;;0.70;;
38683;SDS011;24910;53.248;-6.134;2022-07-23T15:24:52;2.17;;;0.80;;
38683;SDS011;24910;53.248;-6.134;2022-07-23T15:29:53;0.93;;;0.90;;
38683;SDS011;24910;53.248;-6.134;2022-07-23T15:32:22;1.70;;;0.90;;